Flight Track Log - Related Links

Times and Time Zones

All times are in EDT time to prevent confusion due to time zone crossing. See the UAL906 flight status page for this flight to view local times or setup timezone preferences in your user account.

Time Position Orientation Groundspeed Altitude Reporting Facility
EDT Latitude Longitude Course Direction KTS MPH feet Rate Location/Type
Wed 08:12:35 PM 41.9833 -87.8500 56° Northeast 196 226 2,700  Level Chicago TRACON
Wed 08:14:25 PM 42.0511 -87.7164 56° Northeast 265 305 5,800 2,000 Climbing Chicago Center
Wed 08:15:26 PM 42.0978 -87.6081 60° Northeast 326 375 8,400 2,585 Climbing Chicago Center
Wed 08:16:28 PM 42.1497 -87.5028 56° Northeast 339 390 11,100 2,585 Climbing Chicago Center
Wed 08:17:29 PM 42.2294 -87.4331 33° Northeast 350 403 13,700 2,016 Climbing Chicago Center
Wed 08:18:30 PM 42.3175 -87.4569 349° North 324 373 15,200 1,317 Climbing Chicago Center
Wed 08:19:32 PM 42.4275 -87.4981 345° North 346 398 16,400 1,512 Climbing Chicago Center
Wed 08:20:33 PM 42.5342 -87.5372 345° North 393 452 18,300 1,869 Climbing Chicago Center
Wed 08:21:34 PM 42.6383 -87.5767 344° North 406 467 20,200 1,902 Climbing Chicago Center
Wed 08:22:36 PM 42.7500 -87.6144 346° North 413 475 22,200 1,659 Climbing Chicago Center
Wed 08:23:37 PM 42.8633 -87.6564 345° North 420 483 23,600 1,377 Climbing Chicago Center
Wed 08:24:38 PM 42.9856 -87.6067 17° North 476 548 25,000 1,463 Climbing Chicago Center
Wed 08:25:40 PM 43.1064 -87.4633 41° Northeast 497 572 26,600 1,317 Climbing Chicago Center
Wed 08:26:41 PM 43.1956 -87.3567 41° Northeast 502 578 27,700 1,082 Climbing Chicago Center
Wed 08:27:42 PM 43.3064 -87.2275 40° Northeast 517 595 28,800 1,463 Climbing Chicago Center
Wed 08:28:44 PM 43.4356 -87.0719 41° Northeast 512 589 30,700 1,512 Climbing Chicago Center
Wed 08:29:45 PM 43.5439 -86.9419 41° Northeast 515 593 31,900 1,131 Climbing Chicago Center
Wed 08:30:46 PM 43.6525 -86.8114 41° Northeast 516 594 33,000 688 Climbing Chicago Center
Wed 08:31:21 PM 43.7172 -86.7336 41° Northeast 516 594 33,000  Level Minneapolis Center
Wed 08:32:23 PM 43.8264 -86.5992 42° Northeast 523 602 33,000  Level Minneapolis Center
Wed 08:33:25 PM 43.9372 -86.4644 41° Northeast 528 608 33,000  Level Minneapolis Center
Wed 08:34:27 PM 44.0475 -86.3292 41° Northeast 529 609 33,000  Level Minneapolis Center
Wed 08:35:29 PM 44.1628 -86.1839 42° Northeast 532 612 33,000  Level Minneapolis Center
Wed 08:36:31 PM 44.2728 -86.0478 42° Northeast 532 612 33,000  Level Minneapolis Center
Wed 08:37:33 PM 44.3831 -85.9097 42° Northeast 537 618 33,000  Level Minneapolis Center
Wed 08:38:35 PM 44.5131 -85.7461 42° Northeast 532 612 33,000  Level Minneapolis Center
Wed 08:39:38 PM 44.6208 -85.6083 42° Northeast 532 612 33,000  Level Minneapolis Center
Wed 08:40:40 PM 44.6578 -85.4133 75° East 531 611 33,000  Level Minneapolis Center
Wed 08:41:42 PM 44.6392 -85.2136 97° East 521 600 33,000  Level Minneapolis Center
Wed 08:42:44 PM 44.6189 -85.0133 98° East 519 597 33,000  Level Minneapolis Center
Wed 08:43:45 PM 44.5958 -84.7739 98° East 518 596 33,000  Level Minneapolis Center
Wed 08:44:47 PM 44.5767 -84.5753 98° East 516 594 33,000  Level Minneapolis Center
Wed 08:45:49 PM 44.5564 -84.3753 98° East 518 596 33,000  Level Minneapolis Center
Wed 08:46:51 PM 44.5364 -84.1775 98° East 517 595 33,000  Level Minneapolis Center
Wed 08:47:53 PM 44.5147 -83.9786 99° East 517 595 33,000  Level Minneapolis Center
Wed 08:48:55 PM 44.4942 -83.7800 98° East 517 595 33,000  Level Minneapolis Center
Wed 08:49:57 PM 44.4683 -83.5431 99° East 515 593 33,000  Level Minneapolis Center
Wed 08:50:59 PM 44.4606 -83.3428 93° East 518 596 33,000  Level Minneapolis Center
Wed 08:52:01 PM 44.5019 -83.1464 73° East 524 603 33,000  Level Minneapolis Center
Wed 08:53:03 PM 44.5406 -82.9508 74° East 524 603 33,000  Level Minneapolis Center
Wed 08:54:05 PM 44.5808 -82.7561 74° East 523 602 33,000  Level Minneapolis Center
Wed 08:55:07 PM 44.6194 -82.5592 75° East 524 603 33,000  Level Minneapolis Center
Wed 08:55:26 PM 44.6333 -82.4500 80° East 520 598 33,000  Level Toronto Center
Wed 08:56:26 PM 44.6500 -82.2500 83° East 530 610 33,000  Level Toronto Center
Wed 08:57:26 PM 44.6833 -82.0667 76° East 520 598 33,000  Level Toronto Center
Wed 08:58:26 PM 44.7500 -81.8667 65° Northeast 530 610 33,000  Level Toronto Center
Wed 08:59:26 PM 44.7667 -81.6833 83° East 520 598 33,000  Level Toronto Center
Wed 09:00:26 PM 44.8167 -81.4667 72° East 520 598 33,000  Level Toronto Center
Wed 09:01:26 PM 44.8333 -81.2833 83° East 520 598 33,000  Level Toronto Center
Wed 09:02:26 PM 44.8833 -81.0667 72° East 520 598 33,000  Level Toronto Center
Wed 09:03:26 PM 44.9167 -80.8833 76° East 520 598 33,000  Level Toronto Center
Wed 09:04:26 PM 44.9500 -80.6667 78° East 530 610 33,000  Level Toronto Center
Wed 09:05:26 PM 45.0000 -80.4500 72° East 540 621 33,000  Level Toronto Center
Wed 09:06:26 PM 45.0333 -80.2667 76° East 540 621 33,000  Level Toronto Center
Wed 09:07:26 PM 45.0667 -80.0333 78° East 540 621 33,000  Level Toronto Center
Wed 09:08:26 PM 45.1000 -79.8500 75° East 540 621 33,000  Level Toronto Center
Wed 09:09:26 PM 45.1333 -79.6333 78° East 540 621 33,000 200 Level Toronto Center
Wed 09:10:26 PM 45.1667 -79.4500 75° East 540 621 33,400 450 Climbing Toronto Center
Wed 09:11:26 PM 45.2000 -79.2333 78° East 530 610 33,900 500 Climbing Toronto Center
Wed 09:12:26 PM 45.2333 -79.0167 78° East 530 610 34,400 500 Climbing Toronto Center
Wed 09:13:26 PM 45.2833 -78.8000 72° East 540 621 34,900 300 Climbing Toronto Center
Wed 09:14:26 PM 45.3167 -78.6167 75° East 540 621 35,000 50 Climbing Toronto Center
Wed 09:15:26 PM 45.3500 -78.4167 77° East 540 621 35,000  Level Toronto Center
Wed 09:16:26 PM 45.3833 -78.2000 78° East 540 621 35,000  Level Toronto Center
Wed 09:17:14 PM 45.4167 -78.0667 70° East 530 610 35,000  Level Montreal Center
Wed 09:18:14 PM 45.4667 -77.8833 69° East 530 610 35,000  Level Montreal Center
Wed 09:19:14 PM 45.5000 -77.6667 78° East 530 610 35,000  Level Montreal Center
Wed 09:20:14 PM 45.5333 -77.4500 78° East 530 610 35,000  Level Montreal Center
Wed 09:21:14 PM 45.5667 -77.2333 78° East 530 610 35,000  Level Montreal Center
Wed 09:22:14 PM 45.6000 -77.0500 75° East 530 610 35,000  Level Montreal Center
Wed 09:23:14 PM 45.6333 -76.8500 77° East 530 610 35,000  Level Montreal Center
Wed 09:24:14 PM 45.6667 -76.6333 78° East 540 621 35,000  Level Montreal Center
Wed 09:25:14 PM 45.7167 -76.4167 72° East 540 621 35,000  Level Montreal Center
Wed 09:26:14 PM 45.7500 -76.2000 77° East 540 621 35,000  Level Montreal Center
Wed 09:27:14 PM 45.7833 -76.0167 75° East 540 621 35,000  Level Montreal Center
Wed 09:28:14 PM 45.8167 -75.8000 77° East 540 621 35,000  Level Montreal Center
Wed 09:29:14 PM 45.8500 -75.5833 77° East 540 621 35,000  Level Montreal Center
Wed 09:30:14 PM 45.8833 -75.3833 76° East 540 621 35,000  Level Montreal Center
Wed 09:31:14 PM 45.9000 -75.1667 84° East 540 621 35,000  Level Montreal Center
Wed 09:32:14 PM 45.9333 -74.9500 77° East 540 621 35,000  Level Montreal Center
Wed 09:33:14 PM 45.9667 -74.7667 75° East 540 621 35,000  Level Montreal Center
Wed 09:34:14 PM 46.0000 -74.5167 79° East 540 621 35,000  Level Montreal Center
Wed 09:35:14 PM 46.0333 -74.3333 75° East 530 610 35,000  Level Montreal Center
Wed 09:36:14 PM 46.0667 -74.1333 76° East 540 621 35,000  Level Montreal Center
Wed 09:37:14 PM 46.1167 -73.8833 74° East 530 610 35,000  Level Montreal Center
Wed 09:38:14 PM 46.1333 -73.7000 82° East 530 610 35,000  Level Montreal Center
Wed 09:39:14 PM 46.1667 -73.4667 78° East 530 610 35,000  Level Montreal Center
Wed 09:40:14 PM 46.2000 -73.2833 75° East 530 610 35,000  Level Montreal Center
Wed 09:41:14 PM 46.2167 -73.0667 84° East 530 610 35,000  Level Montreal Center
Wed 09:42:14 PM 46.2500 -72.8333 78° East 530 610 35,000  Level Montreal Center
Wed 09:43:14 PM 46.2833 -72.6500 75° East 530 610 35,000  Level Montreal Center
Wed 09:44:14 PM 46.3000 -72.4167 84° East 530 610 35,000  Level Montreal Center
Wed 09:45:14 PM 46.3333 -72.2000 77° East 540 621 35,000  Level Montreal Center
Wed 09:46:14 PM 46.3500 -72.0000 83° East 540 621 35,000  Level Montreal Center
Wed 09:47:14 PM 46.3833 -71.7833 77° East 540 621 35,000  Level Montreal Center
Wed 09:48:14 PM 46.4000 -71.5667 84° East 540 621 35,000  Level Montreal Center
Wed 09:49:14 PM 46.4333 -71.3500 77° East 540 621 35,000  Level Montreal Center
Wed 09:50:14 PM 46.4500 -71.1500 83° East 530 610 35,000  Level Montreal Center
Wed 09:51:14 PM 46.4833 -70.9167 78° East 530 610 35,000  Level Montreal Center
Wed 09:52:14 PM 46.5000 -70.7333 82° East 530 610 35,000  Level Montreal Center
Wed 09:53:14 PM 46.5333 -70.5000 78° East 530 610 35,000  Level Montreal Center
Wed 09:54:14 PM 46.5500 -70.3000 83° East 530 610 35,000  Level Montreal Center
Wed 09:55:14 PM 46.5667 -70.0833 84° East 530 610 35,000  Level Montreal Center
Wed 09:56:14 PM 46.6000 -69.8667 77° East 530 610 35,000  Level Montreal Center
Wed 09:57:15 PM 46.6308 -69.7183 73° East 528 608 35,000  Level Boston Center
Wed 09:58:13 PM 46.6508 -69.5058 82° East 528 608 35,000  Level Boston Center
Wed 09:59:14 PM 46.6703 -69.2961 82° East 523 602 35,000  Level Boston Center
Wed 10:00:15 PM 46.6953 -69.0678 81° East 523 602 35,000  Level Boston Center
Wed 10:01:15 PM 46.7158 -68.8517 82° East 523 602 35,000  Level Boston Center
Wed 10:02:13 PM 46.7361 -68.6386 82° East 528 608 35,000  Level Boston Center
Wed 10:03:14 PM 46.7583 -68.4250 81° East 530 610 35,000  Level Boston Center
Wed 10:04:15 PM 46.7756 -68.2086 83° East 525 604 35,000  Level Boston Center
Wed 10:05:13 PM 46.7964 -67.9825 82° East 536 617 35,000  Level Boston Center
Wed 10:05:52 PM 46.8000 -67.8500 88° East 530 610 35,000  Level Moncton Center
Wed 10:06:52 PM 46.8167 -67.6500 83° East 530 610 35,000  Level Moncton Center
Wed 10:07:52 PM 46.8167 -67.4333 90° East 530 610 35,000  Level Moncton Center
Wed 10:08:52 PM 46.8500 -67.2167 77° East 530 610 35,000  Level Moncton Center
Wed 10:09:52 PM 46.8667 -67.0000 84° East 530 610 35,000  Level Moncton Center
Wed 10:10:52 PM 46.8833 -66.8000 83° East 520 598 35,000  Level Moncton Center
Wed 10:11:52 PM 46.9167 -66.5833 77° East 510 587 35,000  Level Moncton Center
Wed 10:12:52 PM 46.9333 -66.3833 83° East 510 587 35,000  Level Moncton Center
Wed 10:13:52 PM 46.9500 -66.1667 83° East 510 587 35,000  Level Moncton Center
Wed 10:14:52 PM 46.9667 -65.9667 83° East 500 575 35,000  Level Moncton Center
Wed 10:15:52 PM 46.9833 -65.7667 83° East 500 575 35,000  Level Moncton Center
Wed 10:16:52 PM 47.0000 -65.5500 83° East 510 587 35,000  Level Moncton Center
Wed 10:17:52 PM 47.0333 -65.3500 76° East 510 587 35,000  Level Moncton Center
Wed 10:18:52 PM 47.0500 -65.1333 83° East 500 575 35,000  Level Moncton Center
Wed 10:19:52 PM 47.0667 -64.9333 83° East 500 575 35,000  Level Moncton Center
Wed 10:20:52 PM 47.0833 -64.7333 83° East 500 575 35,000  Level Moncton Center
Wed 10:21:52 PM 47.1000 -64.5500 82° East 500 575 35,000  Level Moncton Center
Wed 10:22:52 PM 47.1167 -64.3500 83° East 500 575 35,000  Level Moncton Center
Wed 10:23:52 PM 47.1333 -64.1333 83° East 500 575 35,000  Level Moncton Center
Wed 10:24:52 PM 47.1500 -63.9333 83° East 500 575 35,000  Level Moncton Center
Wed 10:25:52 PM 47.1667 -63.7333 83° East 500 575 35,000  Level Moncton Center
Wed 10:26:52 PM 47.1833 -63.5333 83° East 500 575 35,000  Level Moncton Center
Wed 10:27:52 PM 47.2000 -63.3167 83° East 500 575 35,000  Level Moncton Center
Wed 10:28:52 PM 47.2000 -63.1167 90° East 500 575 35,000  Level Moncton Center
Wed 10:29:52 PM 47.2167 -62.9167 83° East 500 575 35,000  Level Moncton Center
Wed 10:30:52 PM 47.2333 -62.7167 83° East 500 575 35,000  Level Moncton Center
Wed 10:31:52 PM 47.2500 -62.5167 83° East 500 575 35,000  Level Moncton Center
Wed 10:32:52 PM 47.2667 -62.3000 83° East 500 575 35,000  Level Moncton Center
Wed 10:33:52 PM 47.2833 -62.1000 83° East 500 575 35,000  Level Moncton Center
Wed 10:34:52 PM 47.2833 -61.9000 90° East 500 575 35,000  Level Moncton Center
Wed 10:35:14 PM 47.3000 -61.8500 64° Northeast 500 575 35,000  Level Gander Center
Wed 10:36:14 PM 47.3000 -61.6333 90° East 500 575 35,000  Level Gander Center
Wed 10:36:52 PM 47.3167 -61.4833 81° East 500 575 35,000  Level Moncton Center
Wed 10:37:52 PM 47.3167 -61.2833 90° East 490 564 35,000  Level Moncton Center
Wed 10:38:52 PM 47.3333 -61.0833 83° East 500 575 35,000  Level Moncton Center
Wed 10:39:52 PM 47.3500 -60.8833 83° East 500 575 35,000  Level Moncton Center
Wed 10:40:14 PM 47.3500 -60.7833 90° East 500 575 35,000  Level Gander Center
Wed 10:40:52 PM 47.3500 -60.6667 90° East 500 575 35,000  Level Moncton Center
Wed 10:41:52 PM 47.3667 -60.4667 83° East 500 575 35,000  Level Moncton Center
Wed 10:42:52 PM 47.3667 -60.2500 90° East 510 587 35,000  Level Moncton Center
Wed 10:43:14 PM 47.3667 -60.1667 90° East 510 587 35,000  Level Gander Center
Wed 10:43:52 PM 47.3833 -60.0500 78° East 500 575 35,000  Level Moncton Center
Wed 10:44:52 PM 47.3833 -59.8167 90° East 510 587 35,000  Level Moncton Center
Wed 10:45:52 PM 47.4000 -59.6167 83° East 510 587 35,000  Level Moncton Center
Wed 10:46:14 PM 47.4000 -59.5500 90° East 510 587 35,000  Level Gander Center
Wed 10:47:14 PM 47.4167 -59.3333 83° East 510 587 35,000  Level Gander Center
Wed 10:47:52 PM 47.4167 -59.2000 90° East 510 587 35,000  Level Moncton Center
Wed 10:48:52 PM 47.4167 -59.0000 90° East 510 587 35,000  Level Moncton Center
Wed 10:49:52 PM 47.4333 -58.7833 83° East 510 587 35,000  Level Moncton Center
Wed 10:50:52 PM 47.4333 -58.5833 90° East 520 598 35,000  Level Moncton Center
Wed 10:51:52 PM 47.4333 -58.3500 90° East 520 598 35,000  Level Moncton Center
Wed 10:52:52 PM 47.4500 -58.1333 83° East 520 598 35,000  Level Moncton Center
Wed 10:53:14 PM 47.4500 -58.0500 90° East 520 598 35,000  Level Gander Center
Wed 10:53:52 PM 47.4500 -57.9000 90° East 520 598 35,000  Level Moncton Center
Wed 10:54:52 PM 47.4500 -57.7000 90° East 530 610 35,000  Level Moncton Center
Wed 10:55:14 PM 47.4667 -57.6167 73° East 530 610 35,000  Level Gander Center
Wed 10:56:14 PM 47.4833 -57.4000 83° East 530 610 35,000  Level Gander Center
Wed 10:56:52 PM 47.5000 -57.2833 78° East 530 610 35,000  Level Moncton Center
Wed 10:57:52 PM 47.5167 -57.0500 84° East 520 598 35,000  Level Moncton Center
Wed 10:58:52 PM 47.5333 -56.8500 83° East 520 598 35,000  Level Moncton Center
Wed 10:59:52 PM 47.5500 -56.6333 83° East 520 598 35,000  Level Moncton Center
Wed 11:00:52 PM 47.5667 -56.4167 83° East 510 587 35,000  Level Moncton Center
Wed 11:01:52 PM 47.5833 -56.2167 83° East 510 587 35,000  Level Moncton Center
Wed 11:02:52 PM 47.6167 -56.0167 76° East 510 587 35,000  Level Moncton Center
Wed 11:03:52 PM 47.6333 -55.8000 83° East 520 598 35,000  Level Moncton Center
Wed 11:04:14 PM 47.6500 -55.7333 70° East 510 587 35,000  Level Gander Center
Wed 11:04:52 PM 47.6667 -55.5833 81° East 510 587 35,000  Level Moncton Center
Wed 11:05:52 PM 47.6667 -55.3667 90° East 510 587 35,000  Level Moncton Center
Wed 11:06:52 PM 47.6833 -55.1667 83° East 520 598 35,000  Level Moncton Center
Wed 11:07:52 PM 47.7000 -54.9500 83° East 520 598 35,000  Level Moncton Center
Wed 11:08:52 PM 47.7167 -54.7333 83° East 520 598 35,000  Level Moncton Center
Wed 11:09:52 PM 47.7167 -54.5333 90° East 520 598 35,000  Level Moncton Center
Wed 11:10:52 PM 47.7333 -54.3000 84° East 520 598 35,000  Level Moncton Center
Wed 11:11:52 PM 47.7667 -54.0833 77° East 520 598 35,000  Level Moncton Center
Wed 11:12:14 PM 47.7667 -54.0167 90° East 520 598 35,000  Level Gander Center
Wed 11:13:14 PM 47.7833 -53.8000 83° East 520 598 35,000  Level Gander Center
Wed 11:14:14 PM 47.8000 -53.5833 83° East 520 598 35,000  Level Gander Center
Wed 11:15:14 PM 47.8167 -53.3667 83° East 520 598 35,000  Level Gander Center
Wed 11:16:14 PM 47.8333 -53.1333 84° East 520 598 35,000  Level Gander Center
Wed 11:17:14 PM 47.8333 -52.9333 90° East 520 598 35,000  Level Gander Center
Wed 11:18:14 PM 47.8500 -52.7333 83° East 520 598 35,000  Level Gander Center
Wed 11:19:14 PM 47.8667 -52.5000 84° East 520 598 35,000  Level Gander Center
Wed 11:20:14 PM 47.8667 -52.3000 90° East 520 598 35,000  Level Gander Center
Wed 11:21:14 PM 47.8833 -52.0833 83° East 520 598 35,000  Level Gander Center
Wed 11:22:15 PM 47.9000 -51.8667 83° East 520 598 35,000  Level Gander Center
Wed 11:23:15 PM 47.9167 -51.6500 83° East 520 598 35,000  Level Gander Center
Wed 11:24:15 PM 47.9167 -51.4167 90° East 520 598 35,000  Level Gander Center
Wed 11:25:15 PM 47.9333 -51.2167 83° East 520 598 35,000  Level Gander Center
Wed 11:26:15 PM 47.9333 -50.9833 90° East 530 610 35,000  Level Gander Center
Wed 11:27:15 PM 47.9500 -50.7833 83° East 530 610 35,000  Level Gander Center
Wed 11:28:15 PM 47.9667 -50.5500 84° East 530 610 35,000  Level Gander Center
Wed 11:29:15 PM 47.9667 -50.3500 90° East 530 610 35,000  Level Gander Center
Wed 11:30:15 PM 47.9833 -50.1333 83° East 520 598 35,000  Level Gander Center
Wed 11:31:15 PM 47.9833 -49.9000 90° East 520 598 35,000  Level Gander Center
Wed 11:32:15 PM 48.0167 -49.7167 75° East 520 598 35,000  Level Gander Center
Wed 11:33:15 PM 48.0833 -49.5000 65° Northeast 520 598 35,000  Level Gander Center
Wed 11:34:15 PM 48.1167 -49.2833 77° East 520 598 35,000  Level Gander Center
Wed 11:35:15 PM 48.1667 -49.0667 71° East 520 598 35,000  Level Gander Center
Wed 11:36:15 PM 48.2333 -48.8833 61° Northeast 520 598 35,000  Level Gander Center
Wed 11:37:15 PM 48.2833 -48.6667 71° East 520 598 35,000  Level Gander Center
Wed 11:38:15 PM 48.3167 -48.4833 75° East 520 598 35,000  Level Gander Center
Wed 11:39:15 PM 48.3667 -48.2667 71° East 520 598 35,000  Level Gander Center
Wed 11:40:15 PM 48.4333 -48.0667 63° Northeast 530 610 35,000  Level Gander Center
Wed 11:41:15 PM 48.4667 -47.8500 77° East 530 610 35,000  Level Gander Center
Wed 11:42:15 PM 48.5167 -47.6333 71° East 530 610 35,000  Level Gander Center
Wed 11:43:15 PM 48.5667 -47.4500 68° East 530 610 35,000  Level Gander Center
Wed 11:44:15 PM 48.6167 -47.2333 71° East 530 610 35,000  Level Gander Center
Wed 11:45:15 PM 48.6667 -47.0000 72° East 530 610 35,000  Level Gander Center
Wed 11:46:15 PM 48.7167 -46.8167 67° East 530 610 35,000  Level Gander Center
Wed 11:48:00 PM 48.8118 -46.4727 67° East  Level FlightAware Approximate
Wed 11:55:00 PM 49.1125 -45.0612 72° East  Level FlightAware Approximate
Wed 11:56:00 PM 49.1529 -44.8576 73° East  Level FlightAware Approximate
Wed 11:57:00 PM 49.1930 -44.6537 73° East  Level FlightAware Approximate
Wed 11:58:00 PM 49.2327 -44.4495 73° East  Level FlightAware Approximate
Wed 11:59:00 PM 49.2721 -44.2449 73° East  Level FlightAware Approximate
Thu 12:00:00 AM 49.3111 -44.0401 74° East  Level FlightAware Approximate
Thu 12:01:00 AM 49.3498 -43.8349 74° East  Level FlightAware Approximate
Thu 12:02:00 AM 49.3881 -43.6294 74° East  Level FlightAware Approximate
Thu 12:03:00 AM 49.4260 -43.4235 74° East  Level FlightAware Approximate
Thu 12:04:00 AM 49.4635 -43.2174 74° East  Level FlightAware Approximate
Thu 12:05:00 AM 49.5009 -43.0110 74° East  Level FlightAware Approximate
Thu 12:06:00 AM 49.5380 -42.8044 74° East  Level FlightAware Approximate
Thu 12:07:00 AM 49.5748 -42.5974 75° East  Level FlightAware Approximate
Thu 12:08:00 AM 49.6111 -42.3901 75° East  Level FlightAware Approximate
Thu 12:09:00 AM 49.6471 -42.1825 75° East  Level FlightAware Approximate
Thu 12:10:00 AM 49.6827 -41.9746 75° East  Level FlightAware Approximate
Thu 12:11:00 AM 49.7179 -41.7664 75° East  Level FlightAware Approximate
Thu 12:12:00 AM 49.7528 -41.5579 75° East  Level FlightAware Approximate
Thu 12:13:00 AM 49.7873 -41.3491 76° East  Level FlightAware Approximate
Thu 12:14:00 AM 49.8214 -41.1400 76° East  Level FlightAware Approximate
Thu 12:15:00 AM 49.8552 -40.9306 76° East  Level FlightAware Approximate
Thu 12:16:00 AM 49.8885 -40.7210 76° East  Level FlightAware Approximate
Thu 12:17:00 AM 49.9215 -40.5110 76° East  Level FlightAware Approximate
Thu 12:18:00 AM 49.9541 -40.3008 76° East  Level FlightAware Approximate
Thu 12:19:00 AM 49.9863 -40.0902 77° East  Level FlightAware Approximate
Thu 12:20:00 AM 50.0175 -39.8792 77° East  Level FlightAware Approximate
Thu 12:21:00 AM 50.0479 -39.6677 77° East  Level FlightAware Approximate
Thu 12:22:00 AM 50.0779 -39.4559 77° East  Level FlightAware Approximate
Thu 12:22:00 AM 48.0000 -50.0000 69° East 524 603 35,000  Level ETMS Enhanced Traffic Management System
Thu 12:22:00 AM 50.0000 -40.0000 77° East 492 566 35,000  Level ETMS Enhanced Traffic Management System
Thu 12:23:00 AM 50.1075 -39.2439 78° East  Level FlightAware Approximate
Thu 12:24:00 AM 50.1367 -39.0317 78° East  Level FlightAware Approximate
Thu 12:25:00 AM 50.1655 -38.8191 78° East  Level FlightAware Approximate
Thu 12:26:00 AM 50.1940 -38.6063 78° East  Level FlightAware Approximate
Thu 12:27:00 AM 50.2220 -38.3933 78° East  Level FlightAware Approximate
Thu 12:28:00 AM 50.2840 -37.9105 79° East 492 566 35,000  Level FlightAware Transoceanic
Thu 12:29:00 AM 50.3103 -37.7002 79° East 492 566 35,000  Level FlightAware Transoceanic
Thu 12:30:00 AM 50.3363 -37.4897 79° East 492 566 35,000  Level FlightAware Transoceanic
Thu 12:31:00 AM 50.3619 -37.2789 79° East 492 566 35,000  Level FlightAware Transoceanic
Thu 12:32:00 AM 50.3870 -37.0680 79° East 492 566 35,000  Level FlightAware Transoceanic
Thu 12:33:00 AM 50.4118 -36.8568 80° East 492 566 35,000  Level FlightAware Transoceanic
Thu 12:34:00 AM 50.4363 -36.6454 80° East 492 566 35,000  Level FlightAware Transoceanic
Thu 12:35:00 AM 50.4603 -36.4337 80° East 492 566 35,000  Level FlightAware Transoceanic
Thu 12:36:00 AM 50.4840 -36.2219 80° East 492 566 35,000  Level FlightAware Transoceanic
Thu 12:37:00 AM 50.5072 -36.0098 80° East 492 566 35,000  Level FlightAware Transoceanic
Thu 12:38:00 AM 50.5301 -35.7976 80° East 492 566 35,000  Level FlightAware Transoceanic
Thu 12:39:00 AM 50.5526 -35.5851 81° East 492 566 35,000  Level FlightAware Transoceanic
Thu 12:40:00 AM 50.5747 -35.3724 81° East 492 566 35,000  Level FlightAware Transoceanic
Thu 12:41:00 AM 50.5965 -35.1596 81° East 492 566 35,000  Level FlightAware Transoceanic
Thu 12:42:00 AM 50.6178 -34.9465 81° East 492 566 35,000  Level FlightAware Transoceanic
Thu 12:43:00 AM 50.6387 -34.7333 81° East 492 566 35,000  Level FlightAware Transoceanic
Thu 12:44:00 AM 50.6593 -34.5198 81° East 492 566 35,000  Level FlightAware Transoceanic
Thu 12:45:00 AM 50.6795 -34.3062 82° East 492 566 35,000  Level FlightAware Transoceanic
Thu 12:46:00 AM 50.6992 -34.0924 82° East 492 566 35,000  Level FlightAware Transoceanic
Thu 12:47:00 AM 50.7186 -33.8784 82° East 492 566 35,000  Level FlightAware Transoceanic
Thu 12:48:00 AM 50.7376 -33.6642 82° East 492 566 35,000  Level FlightAware Transoceanic
Thu 12:49:00 AM 50.7562 -33.4499 82° East 492 566 35,000  Level FlightAware Transoceanic
Thu 12:50:00 AM 50.7744 -33.2354 82° East 492 566 35,000  Level FlightAware Transoceanic
Thu 12:51:00 AM 50.7922 -33.0207 83° East 492 566 35,000  Level FlightAware Transoceanic
Thu 12:52:00 AM 50.8097 -32.8059 83° East 492 566 35,000  Level FlightAware Transoceanic
Thu 12:53:00 AM 50.8267 -32.5909 83° East 492 566 35,000  Level FlightAware Transoceanic
Thu 12:54:00 AM 50.8433 -32.3758 83° East 492 566 35,000  Level FlightAware Transoceanic
Thu 12:55:00 AM 50.8595 -32.1605 83° East 492 566 35,000  Level FlightAware Transoceanic
Thu 12:56:00 AM 50.8754 -31.9451 83° East 492 566 35,000  Level FlightAware Transoceanic
Thu 12:57:00 AM 50.8908 -31.7295 84° East 492 566 35,000  Level FlightAware Transoceanic
Thu 12:58:00 AM 50.9059 -31.5137 84° East 492 566 35,000  Level FlightAware Transoceanic
Thu 12:59:00 AM 50.9205 -31.2979 84° East 492 566 35,000  Level FlightAware Transoceanic
Thu 01:00:00 AM 50.9347 -31.0819 84° East 492 566 35,000  Level FlightAware Transoceanic
Thu 01:01:00 AM 50.9486 -30.8657 84° East 492 566 35,000  Level FlightAware Transoceanic
Thu 01:02:00 AM 50.9621 -30.6495 84° East 492 566 35,000  Level FlightAware Transoceanic
Thu 01:03:00 AM 50.9751 -30.4331 85° East 492 566 35,000  Level FlightAware Transoceanic
Thu 01:04:00 AM 50.9878 -30.2166 85° East 492 566 35,000 12 Level FlightAware Transoceanic
Thu 01:05:00 AM 51.0002 -29.9963 85° East  Level FlightAware Approximate
Thu 01:06:00 AM 51.0003 -29.9927 86° East  Level FlightAware Approximate
Thu 01:07:00 AM 51.0095 -29.7720 86° East  Level FlightAware Approximate
Thu 01:08:00 AM 51.0183 -29.5512 86° East  Level FlightAware Approximate
Thu 01:09:00 AM 51.0267 -29.3303 86° East  Level FlightAware Approximate
Thu 01:10:00 AM 51.0347 -29.1093 87° East  Level FlightAware Approximate
Thu 01:11:00 AM 51.0423 -28.8883 87° East  Level FlightAware Approximate
Thu 01:12:00 AM 51.0494 -28.6672 87° East  Level FlightAware Approximate
Thu 01:13:00 AM 51.0561 -28.4460 87° East  Level FlightAware Approximate
Thu 01:14:00 AM 51.0624 -28.2247 87° East  Level FlightAware Approximate
Thu 01:15:00 AM 51.0683 -28.0034 87° East  Level FlightAware Approximate
Thu 01:16:00 AM 51.0738 -27.7821 88° East  Level FlightAware Approximate
Thu 01:17:00 AM 51.0788 -27.5607 88° East  Level FlightAware Approximate
Thu 01:18:00 AM 51.0835 -27.3392 88° East  Level FlightAware Approximate
Thu 01:19:00 AM 51.0877 -27.1177 88° East  Level FlightAware Approximate
Thu 01:20:00 AM 51.0914 -26.8962 88° East  Level FlightAware Approximate
Thu 01:21:00 AM 51.0948 -26.6747 89° East  Level FlightAware Approximate
Thu 01:22:00 AM 51.0978 -26.4531 89° East  Level FlightAware Approximate
Thu 01:23:00 AM 51.1003 -26.2314 89° East  Level FlightAware Approximate
Thu 01:24:00 AM 51.1025 -26.0098 89° East  Level FlightAware Approximate
Thu 01:25:00 AM 51.1041 -25.7881 89° East  Level FlightAware Approximate
Thu 01:26:00 AM 51.1054 -25.5665 89° East  Level FlightAware Approximate
Thu 01:27:00 AM 51.1063 -25.3448 90° East  Level FlightAware Approximate
Thu 01:28:00 AM 51.1067 -25.1231 90° East  Level FlightAware Approximate
Thu 01:29:00 AM 51.1068 -24.9014 90° East  Level FlightAware Approximate
Thu 01:30:00 AM 51.1063 -24.6797 90° East  Level FlightAware Approximate
Thu 01:31:00 AM 51.1055 -24.4580 90° East  Level FlightAware Approximate
Thu 01:32:00 AM 51.1043 -24.2363 90° East  Level FlightAware Approximate
Thu 01:33:00 AM 51.1027 -24.0147 91° East  Level FlightAware Approximate
Thu 01:34:00 AM 51.1006 -23.7930 91° East  Level FlightAware Approximate
Thu 01:35:00 AM 51.0981 -23.5714 91° East  Level FlightAware Approximate
Thu 01:36:00 AM 51.0952 -23.3498 91° East  Level FlightAware Approximate
Thu 01:37:00 AM 51.0919 -23.1282 91° East  Level FlightAware Approximate
Thu 01:38:00 AM 51.0881 -22.9067 91° East  Level FlightAware Approximate
Thu 01:39:00 AM 51.0839 -22.6852 92° East  Level FlightAware Approximate
Thu 01:40:00 AM 51.0793 -22.4638 92° East  Level FlightAware Approximate
Thu 01:41:00 AM 51.0743 -22.2423 92° East  Level FlightAware Approximate
Thu 01:42:00 AM 51.0689 -22.0210 92° East  Level FlightAware Approximate
Thu 01:43:00 AM 51.0631 -21.7997 92° East  Level FlightAware Approximate
Thu 01:44:00 AM 51.0568 -21.5784 92° East  Level FlightAware Approximate
Thu 01:45:00 AM 51.0502 -21.3573 93° East  Level FlightAware Approximate
Thu 01:46:00 AM 51.0431 -21.1361 93° East  Level FlightAware Approximate
Thu 01:47:00 AM 51.0356 -20.9151 93° East  Level FlightAware Approximate
Thu 01:48:00 AM 51.0276 -20.6941 93° East  Level FlightAware Approximate
Thu 01:49:00 AM 51.0193 -20.4732 93° East  Level FlightAware Approximate
Thu 01:50:00 AM 51.0105 -20.2524 94° East  Level FlightAware Approximate
Thu 01:51:00 AM 51.0014 -20.0317 94° East  Level FlightAware Approximate
Thu 01:52:00 AM 51.0134 -19.8117 83° East  Level FlightAware Approximate
Thu 01:53:00 AM 51.0287 -19.5918 84° East  Level FlightAware Approximate
Thu 01:54:00 AM 51.0436 -19.3717 84° East  Level FlightAware Approximate
Thu 01:55:00 AM 51.0580 -19.1514 84° East  Level FlightAware Approximate
Thu 01:56:00 AM 51.0721 -18.9311 84° East  Level FlightAware Approximate
Thu 01:57:00 AM 51.0859 -18.7106 84° East  Level FlightAware Approximate
Thu 01:58:00 AM 51.1000 -18.4901 84° East  Level FlightAware Approximate
Thu 01:59:00 AM 51.1136 -18.2695 84° East  Level FlightAware Approximate
Thu 02:00:00 AM 51.1269 -18.0488 84° East  Level FlightAware Approximate
Thu 02:01:00 AM 51.1397 -17.8279 85° East  Level FlightAware Approximate
Thu 02:02:00 AM 51.1521 -17.6069 85° East  Level FlightAware Approximate
Thu 02:03:00 AM 51.1641 -17.3858 85° East  Level FlightAware Approximate
Thu 02:04:00 AM 51.1757 -17.1645 85° East  Level FlightAware Approximate
Thu 02:05:00 AM 51.1868 -16.9432 85° East  Level FlightAware Approximate
Thu 02:06:00 AM 51.1976 -16.7218 85° East  Level FlightAware Approximate
Thu 02:07:00 AM 51.2079 -16.5002 86° East  Level FlightAware Approximate
Thu 02:08:00 AM 51.2178 -16.2786 86° East  Level FlightAware Approximate
Thu 02:09:00 AM 51.2273 -16.0569 86° East  Level FlightAware Approximate
Thu 02:10:00 AM 51.2363 -15.8350 86° East  Level FlightAware Approximate
Thu 02:11:00 AM 51.2450 -15.6131 86° East  Level FlightAware Approximate
Thu 02:12:00 AM 51.2532 -15.3911 87° East  Level FlightAware Approximate
Thu 02:13:00 AM 51.2610 -15.1691 87° East  Level FlightAware Approximate
Thu 02:14:00 AM 51.2685 -14.9469 87° East  Level FlightAware Approximate
Thu 02:15:00 AM 51.2757 -14.7247 87° East  Level FlightAware Approximate
Thu 02:16:00 AM 51.2825 -14.5025 87° East  Level FlightAware Approximate
Thu 02:17:00 AM 51.2890 -14.2801 87° East  Level FlightAware Approximate
Thu 02:18:00 AM 51.2949 -14.0578 87° East  Level FlightAware Approximate
Thu 02:19:00 AM 51.3005 -13.8353 88° East  Level FlightAware Approximate
Thu 02:20:00 AM 51.3057 -13.6128 88° East  Level FlightAware Approximate
Thu 02:21:00 AM 51.3104 -13.3903 88° East  Level FlightAware Approximate
Thu 02:22:00 AM 51.3147 -13.1677 88° East  Level FlightAware Approximate
Thu 02:23:00 AM 51.3186 -12.9451 88° East  Level FlightAware Approximate
Thu 02:24:00 AM 51.3220 -12.7224 88° East  Level FlightAware Approximate
Thu 02:25:00 AM 51.3251 -12.4997 89° East  Level FlightAware Approximate
Thu 02:26:00 AM 51.3277 -12.2770 89° East  Level FlightAware Approximate
Thu 02:27:00 AM 51.3299 -12.0543 89° East  Level FlightAware Approximate
Thu 02:28:00 AM 51.3316 -11.8315 89° East  Level FlightAware Approximate
Thu 02:29:00 AM 51.3330 -11.6088 89° East  Level FlightAware Approximate
Thu 02:30:00 AM 51.3339 -11.3860 90° East  Level FlightAware Approximate
Thu 02:31:00 AM 51.3344 -11.1632 90° East  Level FlightAware Approximate
Thu 02:32:00 AM 51.3345 -10.9404 90° East  Level FlightAware Approximate
Thu 02:33:00 AM 51.3341 -10.7176 90° East  Level FlightAware Approximate
Thu 02:34:00 AM 51.3334 -10.4948 90° East  Level FlightAware Approximate
Thu 02:35:00 AM 51.3324 -10.2720 90° East  Level FlightAware Approximate
Thu 02:36:00 AM 51.3310 -10.0493 90° East  Level FlightAware Approximate
Thu 02:37:00 AM 51.3292 -9.8265 91° East  Level FlightAware Approximate
Thu 02:38:00 AM 51.3269 -9.6038 91° East  Level FlightAware Approximate
Thu 02:39:00 AM 51.3242 -9.3811 91° East  Level FlightAware Approximate
Thu 02:40:00 AM 51.3212 -9.1584 91° East  Level FlightAware Approximate
Thu 02:41:00 AM 51.3176 -8.9358 91° East  Level FlightAware Approximate
Thu 02:42:00 AM 51.3137 -8.7131 92° East  Level FlightAware Approximate
Thu 02:43:00 AM 51.3093 -8.4906 92° East  Level FlightAware Approximate
Thu 02:44:00 AM 51.3046 -8.2680 92° East  Level FlightAware Approximate
Thu 02:45:00 AM 51.2994 -8.0456 92° East  Level FlightAware Approximate
Thu 02:46:00 AM 51.2937 -7.8231 92° East  Level FlightAware Approximate
Thu 02:47:00 AM 51.2877 -7.6008 92° East  Level FlightAware Approximate
Thu 02:48:00 AM 51.2811 -7.3784 93° East  Level FlightAware Approximate
Thu 02:49:00 AM 51.2740 -7.1562 93° East  Level FlightAware Approximate
Thu 02:50:00 AM 51.2664 -6.9341 93° East  Level FlightAware Approximate
Thu 02:51:00 AM 51.2585 -6.7120 93° East  Level FlightAware Approximate
Thu 02:52:00 AM 51.2501 -6.4900 93° East  Level FlightAware Approximate
Thu 02:53:00 AM 51.2413 -6.2681 94° East  Level FlightAware Approximate
Thu 02:54:00 AM 51.2320 -6.0462 94° East  Level FlightAware Approximate
Thu 02:55:00 AM 51.2224 -5.8245 94° East  Level FlightAware Approximate
Thu 02:56:00 AM 51.2123 -5.6028 94° East  Level FlightAware Approximate
Thu 02:57:00 AM 51.2018 -5.3813 94° East  Level FlightAware Approximate
Thu 02:58:00 AM 51.1909 -5.1599 94° East  Level FlightAware Approximate
Thu 02:59:00 AM 51.1796 -4.9385 95° East  Level FlightAware Approximate
Thu 03:00:00 AM 51.1678 -4.7173 95° East  Level FlightAware Approximate
Thu 03:01:00 AM 51.1557 -4.4962 95° East  Level FlightAware Approximate
Thu 03:02:00 AM 51.1431 -4.2752 95° East  Level FlightAware Approximate
Thu 03:03:00 AM 51.1301 -4.0543 95° East  Level FlightAware Approximate
Thu 03:04:00 AM 51.1167 -3.8336 95° East  Level FlightAware Approximate
Thu 03:05:00 AM 51.1042 -3.6128 95° East  Level FlightAware Approximate
Thu 03:06:00 AM 51.0913 -3.3921 95° East  Level FlightAware Approximate
Thu 03:07:00 AM 51.0779 -3.1715 95° East  Level FlightAware Approximate
Thu 03:08:00 AM 51.0642 -2.9511 96° East  Level FlightAware Approximate
Thu 03:09:00 AM 51.0500 -2.7308 96° East  Level FlightAware Approximate
Thu 03:10:00 AM 51.0354 -2.5106 96° East  Level FlightAware Approximate
Thu 03:11:00 AM 51.0205 -2.2906 96° East  Level FlightAware Approximate
Thu 03:12:00 AM 51.0050 -2.0707 96° East  Level FlightAware Approximate
Thu 03:13:00 AM 50.9863 -1.8515 98° East  Level FlightAware Approximate
Thu 03:14:00 AM 50.9659 -1.6329 98° East  Level FlightAware Approximate
Thu 03:15:00 AM 50.9500 -1.4138 90° East  Level FlightAware Approximate
Thu 03:16:00 AM 50.9619 -1.1941 82° East  Level FlightAware Approximate
Thu 03:17:00 AM 50.9802 -0.9750 82° East  Level FlightAware Approximate
Thu 03:18:00 AM 50.9982 -0.7557 83° East  Level FlightAware Approximate
Thu 03:19:00 AM 51.0157 -0.5362 83° East  Level FlightAware Approximate
Thu 03:20:00 AM 51.0328 -0.3166 83° East  Level FlightAware Approximate
Thu 03:21:00 AM 51.0495 -0.0969 83° East  Level FlightAware Approximate
Thu 03:22:00 AM 51.0658 0.1231 83° East  Level FlightAware Approximate
Thu 03:23:00 AM 51.0817 0.3432 83° East  Level FlightAware Approximate
Thu 03:24:00 AM 51.0972 0.5634 84° East  Level FlightAware Approximate
Thu 03:25:00 AM 51.1122 0.7838 84° East  Level FlightAware Approximate
Thu 03:26:00 AM 51.1272 1.0043 84° East  Level FlightAware Approximate
Thu 03:27:00 AM 51.1419 1.2249 84° East  Level FlightAware Approximate
Thu 03:28:00 AM 51.1453 1.4458 94° East  Level FlightAware Approximate
Thu 03:29:00 AM 51.1342 1.6669 94° East  Level FlightAware Approximate
Thu 03:30:00 AM 51.1227 1.8880 95° East  Level FlightAware Approximate
Thu 03:31:00 AM 51.0932 2.1027 110° East  Level FlightAware Approximate
Thu 03:32:00 AM 51.0452 2.3106 110° East  Level FlightAware Approximate
Thu 03:33:00 AM 50.9969 2.5182 110° East  Level FlightAware Approximate
Thu 03:34:00 AM 50.9483 2.7253 110° East  Level FlightAware Approximate
Thu 03:35:00 AM 50.8993 2.9320 111° Southeast  Level FlightAware Approximate
Thu 03:36:00 AM 50.8499 3.1382 111° Southeast  Level FlightAware Approximate
Thu 03:37:00 AM 50.8001 3.3440 111° Southeast  Level FlightAware Approximate
Thu 03:38:00 AM 50.7500 3.5493 111° Southeast  Level FlightAware Approximate
Thu 03:39:00 AM 50.6995 3.7542 111° Southeast  Level FlightAware Approximate
Thu 03:40:00 AM 50.6487 3.9587 111° Southeast  Level FlightAware Approximate
Thu 03:41:00 AM 50.5975 4.1627 112° Southeast  Level FlightAware Approximate
Thu 03:42:00 AM 50.5459 4.3663 112° Southeast  Level FlightAware Approximate
Thu 03:43:00 AM 50.4940 4.5694 112° Southeast  Level FlightAware Approximate
Thu 03:44:00 AM 50.4418 4.7721 112° Southeast  Level FlightAware Approximate
Thu 03:45:00 AM 50.3891 4.9744 112° Southeast  Level FlightAware Approximate
Thu 03:46:00 AM 50.3362 5.1762 112° Southeast  Level FlightAware Approximate
Thu 03:47:00 AM 50.2835 5.3752 112° Southeast  Level FlightAware Approximate
Thu 03:48:00 AM 50.2305 5.5738 113° Southeast  Level FlightAware Approximate
Thu 03:49:00 AM 50.1771 5.7719 113° Southeast  Level FlightAware Approximate
Thu 03:50:00 AM 50.1234 5.9696 113° Southeast  Level FlightAware Approximate
Thu 03:51:00 AM 50.0694 6.1669 113° Southeast  Level FlightAware Approximate
Thu 03:52:00 AM 50.0150 6.3637 113° Southeast  Level FlightAware Approximate
Thu 03:53:00 AM 49.9603 6.5600 113° Southeast  Level FlightAware Approximate
Thu 03:54:00 AM 49.9053 6.7559 114° Southeast  Level FlightAware Approximate
Thu 03:55:00 AM 49.8499 6.9514 114° Southeast  Level FlightAware Approximate
Thu 03:56:00 AM 49.7942 7.1464 114° Southeast  Level FlightAware Approximate
Thu 03:56:18 AM 50.3410 7.4490 114° Southeast 466 536 37,000  Level FlightAware ADS-B
Thu 03:56:58 AM 50.3020 7.5650 118° Southeast 465 535 37,000  Level FlightAware ADS-B
Thu 03:57:00 AM 49.7382 7.3410 114° Southeast  Level FlightAware Approximate
Thu 03:57:43 AM 50.2580 7.6950 118° Southeast 463 533 37,000  Level FlightAware ADS-B
Thu 03:58:23 AM 50.2130 7.8240 119° Southeast 461 531 37,000  Level FlightAware ADS-B
Thu 03:59:08 AM 50.1680 7.9550 118° Southeast 466 536 37,000  Level FlightAware ADS-B
Thu 03:59:48 AM 50.1250 8.0760 119° Southeast 465 535 37,000  Level FlightAware ADS-B
Thu 04:00:33 AM 50.0800 8.2050 118° Southeast 464 534 37,000  Level FlightAware ADS-B
Thu 04:01:13 AM 50.0380 8.3230 119° Southeast 462 532 37,000 -75 Level FlightAware ADS-B
Thu 04:01:53 AM 49.9960 8.4410 119° Southeast 466 536 36,900 -680 Descending FlightAware ADS-B
Thu 04:03:43 AM 49.8860 8.7470 119° Southeast 462 532 35,300 -671 Descending FlightAware ADS-B
Thu 04:04:43 AM 49.8230 8.9180 120° Southeast 461 531 35,000 -189 Descending FlightAware ADS-B
Thu 04:05:18 AM 49.7850 9.0240 119° Southeast 462 532 35,000  Level FlightAware ADS-B
Thu 04:06:08 AM 49.7300 9.1740 120° Southeast 459 528 35,000  Level FlightAware ADS-B
Thu 04:06:48 AM 49.6930 9.2760 119° Southeast 457 526 35,000 -635 Level FlightAware ADS-B
Thu 04:07:33 AM 49.6390 9.4150 121° Southeast 457 526 34,100 -1,200 Descending FlightAware ADS-B
Thu 04:08:23 AM 49.5820 9.5240 129° Southeast 446 513 33,100 -1,453 Descending FlightAware ADS-B
Thu 04:09:08 AM 49.5160 9.6400 131° Southeast 460 529 31,800 -1,800 Descending FlightAware ADS-B
Thu 04:09:53 AM 49.4530 9.7490 132° Southeast 443 510 30,400 -1,906 Descending FlightAware ADS-B
Thu 04:10:33 AM 49.3940 9.8520 131° Southeast 437 503 29,100 -1,760 Descending FlightAware ADS-B
Thu 04:11:08 AM 49.3500 9.9280 132° Southeast 425 489 28,200 -1,760 Descending FlightAware ADS-B
Thu 04:11:48 AM 49.2970 10.0200 131° Southeast 421 484 26,900 -1,733 Descending FlightAware ADS-B
Thu 04:12:38 AM 49.2360 10.1250 132° Southeast 399 459 25,600 -1,543 Descending FlightAware ADS-B
Thu 04:13:33 AM 49.1690 10.2390 132° Southeast 389 448 24,200 -1,143 Descending FlightAware ADS-B
Thu 04:14:23 AM 49.1110 10.3360 132° Southeast 372 428 23,600 -360 Descending FlightAware ADS-B
Thu 04:15:13 AM 49.0610 10.4170 133° Southeast 372 428 23,600 -1,271 Level FlightAware ADS-B
Thu 04:15:48 AM 49.0260 10.4700 135° Southeast 369 425 21,800 -1,968 Descending FlightAware ADS-B
Thu 04:17:18 AM 48.9110 10.6560 133° Southeast 358 412 19,500 -1,824 Descending FlightAware ADS-B
Thu 04:17:53 AM 48.8760 10.7080 136° Southeast 359 413 18,000 -2,025 Descending FlightAware ADS-B
Thu 04:18:38 AM 48.8170 10.7930 136° Southeast 353 406 16,800 -1,482 Descending FlightAware ADS-B
Thu 04:19:18 AM 48.7730 10.8560 137° Southeast 345 397 15,900 -1,080 Descending FlightAware ADS-B
Thu 04:20:18 AM 48.7010 10.9610 136° Southeast 336 387 15,000 -540 Descending FlightAware ADS-B
Thu 04:20:58 AM 48.6580 11.0220 137° Southeast 343 395 15,000  Level FlightAware ADS-B
Thu 04:21:58 AM 48.5880 11.1230 136° Southeast 341 392 15,000 -120 Level FlightAware ADS-B
Thu 04:22:38 AM 48.5440 11.1860 137° Southeast 341 392 14,800 -847 Descending FlightAware ADS-B
Thu 04:23:23 AM 48.4920 11.2610 136° Southeast 326 375 13,800 -1,271 Descending FlightAware ADS-B
Thu 04:24:03 AM 48.4500 11.3200 137° Southeast 315 362 13,000 -1,440 Descending FlightAware ADS-B
Thu 04:24:38 AM 48.4250 11.3900 118° Southeast 319 367 12,000 -1,745 Descending FlightAware ADS-B
Thu 04:24:58 AM 48.4280 11.4420 85° East 315 362 11,400 -923 Descending FlightAware ADS-B
Thu 04:25:43 AM 48.4350 11.5430 84° East 313 360 11,000 -282 Descending FlightAware ADS-B
Thu 04:26:23 AM 48.4410 11.6300 84° East 315 362 11,000  Level FlightAware ADS-B
Thu 04:27:03 AM 48.4480 11.7170 83° East 315 362 11,000 -282 Level FlightAware ADS-B
Thu 04:27:48 AM 48.4550 11.8140 84° East 311 358 10,600 -960 Descending FlightAware ADS-B
Thu 04:28:18 AM 48.4590 11.8800 85° East 309 356 9,800 -1,527 Descending FlightAware ADS-B
Thu 04:28:43 AM 48.4620 11.9320 85° East 305 351 9,200 -1,636 Descending FlightAware ADS-B
Thu 04:29:13 AM 48.4660 11.9960 85° East 302 348 8,300 -1,745 Descending FlightAware ADS-B
Thu 04:29:38 AM 48.4690 12.0490 85° East 300 345 7,600 -1,636 Descending FlightAware ADS-B
Thu 04:30:08 AM 48.4730 12.1100 84° East 296 341 6,800 -1,292 Descending FlightAware ADS-B
Thu 04:30:43 AM 48.4740 12.1620 88° East 297 342 6,200 -1,527 Descending FlightAware ADS-B
Thu 04:31:03 AM 48.4490 12.2060 131° Southeast 284 327 5,400 -1,886 Descending FlightAware ADS-B
Thu 04:31:18 AM 48.4300 12.2110 170° South 277 319 5,100 -1,200 Descending FlightAware ADS-B
Thu 04:31:33 AM 48.4120 12.2020 198° South 260 299 4,800 -960 Descending FlightAware ADS-B
Thu 04:31:43 AM 48.4030 12.1900 222° Southwest 244 281 4,700 -450 Descending FlightAware ADS-B
Thu 04:32:13 AM 48.3890 12.1470 244° Southwest 222 255 4,500 -400 Descending FlightAware ADS-B
Thu 04:32:28 AM 48.3870 12.1250 262° West 214 246 4,400 -667 Descending FlightAware ADS-B
Thu 04:32:58 AM 48.3840 12.0830 264° West 200 230 4,000 -545 Descending FlightAware ADS-B
Thu 04:33:23 AM 48.3820 12.0490 265° West 180 207 3,900 -655 Descending FlightAware ADS-B
Thu 04:33:53 AM 48.3780 12.0130 261° West 167 192 3,400 -873 Descending FlightAware ADS-B
Thu 04:34:18 AM 48.3750 11.9840 261° West 158 182 3,100 -873 Descending FlightAware ADS-B
Thu 04:34:48 AM 48.3730 11.9550 264° West 139 160 2,600 -933 Descending FlightAware ADS-B
Thu 04:35:03 AM 48.3720 11.9400 264° West 134 154 2,400 -750 Descending FlightAware ADS-B
Thu 04:35:28 AM 48.3700 11.9160 263° West 130 150 2,100 -655 Descending FlightAware ADS-B
Thu 04:35:58 AM 48.3670 11.8910 260° West 126 145 1,800 -700 Descending FlightAware ADS-B
Thu 04:36:28 AM 48.3650 11.8630 264° West 131 151 1,400 -800 Descending FlightAware ADS-B

Login

Don't have an account? Register now (free) for customized features, flight alerts, and more!